createdAt,value
2019-01-06T00:00:26.747Z,2.40
2019-01-06T00:02:57.056Z,2.40
2019-01-06T00:05:39.568Z,2.40
2019-01-06T00:08:09.613Z,2.40
2019-01-06T00:10:39.677Z,2.40
2019-01-06T00:13:25.765Z,2.40
2019-01-06T00:15:55.836Z,2.40
2019-01-06T00:18:35.093Z,2.40
2019-01-06T00:24:08.690Z,2.30
2019-01-06T00:29:27.417Z,2.30
2019-01-06T00:31:57.497Z,2.30
2019-01-06T00:34:33.585Z,2.30
2019-01-06T00:37:09.657Z,2.30
2019-01-06T00:39:45.880Z,2.40
2019-01-06T00:42:32.303Z,2.50
2019-01-06T00:45:18.434Z,2.50
2019-01-06T00:53:00.073Z,2.50
2019-01-06T00:55:41.718Z,2.50
2019-01-06T01:03:41.440Z,2.50
2019-01-06T01:06:11.501Z,2.50
2019-01-06T01:08:53.411Z,2.50
2019-01-06T01:11:39.685Z,2.50
2019-01-06T01:14:26.052Z,2.50
2019-01-06T01:17:08.331Z,2.50
2019-01-06T01:19:38.604Z,2.50
2019-01-06T01:22:09.133Z,2.50
2019-01-06T01:24:55.542Z,2.50
2019-01-06T01:30:04.651Z,2.50
2019-01-06T01:32:35.010Z,2.50
2019-01-06T01:35:05.402Z,2.50
2019-01-06T01:40:05.627Z,2.50
2019-01-06T01:42:35.789Z,2.50
2019-01-06T01:45:22.410Z,2.50
2019-01-06T01:50:43.064Z,2.40
2019-01-06T02:01:15.797Z,2.40
2019-01-06T02:03:57.560Z,2.40
2019-01-06T02:06:45.450Z,2.40
2019-01-06T02:09:31.901Z,2.50
2019-01-06T02:12:07.737Z,2.50
2019-01-06T02:14:38.100Z,2.50
2019-01-06T02:17:24.469Z,2.50
2019-01-06T02:20:06.600Z,2.40
2019-01-06T02:22:42.408Z,2.40
2019-01-06T02:25:31.198Z,2.40
2019-01-06T02:28:03.701Z,2.40
2019-01-06T02:30:49.680Z,2.40
2019-01-06T02:33:31.564Z,2.40
2019-01-06T02:36:16.445Z,2.40
2019-01-06T02:38:46.574Z,2.40
2019-01-06T02:41:33.037Z,2.40
2019-01-06T02:44:14.936Z,2.40
2019-01-06T02:52:12.618Z,2.40
2019-01-06T02:54:42.699Z,2.30
2019-01-06T02:57:28.758Z,2.40
2019-01-06T02:59:58.869Z,2.40
2019-01-06T03:02:28.930Z,2.40
2019-01-06T03:05:10.682Z,2.30
2019-01-06T03:10:28.333Z,2.30
2019-01-06T03:13:04.494Z,2.30
2019-01-06T03:18:09.963Z,2.40
2019-01-06T03:20:48.695Z,2.30
2019-01-06T03:31:25.232Z,2.40
2019-01-06T03:33:55.645Z,2.40
2019-01-06T03:36:31.273Z,2.40
2019-01-06T03:39:17.923Z,2.40
2019-01-06T03:47:18.525Z,2.40
2019-01-06T03:49:54.296Z,2.40
2019-01-06T03:52:40.870Z,2.40
2019-01-06T04:03:22.910Z,2.40
2019-01-06T04:05:52.984Z,2.40
2019-01-06T04:08:25.798Z,2.40
2019-01-06T04:11:15.387Z,2.40
2019-01-06T04:13:46.508Z,2.30
2019-01-06T04:16:22.662Z,2.30
2019-01-06T04:21:40.514Z,2.30
2019-01-06T04:24:28.446Z,2.30
2019-01-06T04:26:58.493Z,2.30
2019-01-06T04:29:28.568Z,2.30
2019-01-06T04:32:10.652Z,2.30
2019-01-06T04:37:10.731Z,2.30
2019-01-06T04:42:10.530Z,2.20
2019-01-06T04:47:22.083Z,2.30
2019-01-06T04:52:40.943Z,2.30
2019-01-06T04:55:19.401Z,2.20
2019-01-06T05:03:30.166Z,2.20
2019-01-06T05:08:41.945Z,2.20
2019-01-06T05:13:53.062Z,2.20
2019-01-06T05:29:09.154Z,2.30
2019-01-06T05:31:55.479Z,2.30
2019-01-06T05:34:29.014Z,2.30
2019-01-06T05:37:15.495Z,2.30
2019-01-06T05:39:45.546Z,2.30
2019-01-06T05:42:15.610Z,2.30
2019-01-06T05:49:57.286Z,2.20
2019-01-06T05:52:29.782Z,2.30
2019-01-06T05:57:44.742Z,2.30
2019-01-06T06:00:14.808Z,2.20
2019-01-06T06:02:47.629Z,2.20
2019-01-06T06:08:09.659Z,2.30
2019-01-06T06:13:35.142Z,2.20
2019-01-06T06:16:21.286Z,2.30
2019-01-06T06:18:54.034Z,2.20
2019-01-06T06:21:32.786Z,2.20
2019-01-06T06:29:30.074Z,2.30
2019-01-06T06:32:05.859Z,2.20
2019-01-06T06:37:23.725Z,2.20
2019-01-06T06:39:53.784Z,2.30
2019-01-06T06:42:35.813Z,2.30
2019-01-06T06:45:06.104Z,2.30
2019-01-06T06:47:38.583Z,2.30
2019-01-06T06:50:24.789Z,2.30
2019-01-06T06:55:27.591Z,2.30
2019-01-06T07:01:01.471Z,2.20
2019-01-06T07:06:34.261Z,2.20
2019-01-06T07:09:07.006Z,2.30
2019-01-06T07:14:12.603Z,2.30
2019-01-06T07:19:36.776Z,2.30
2019-01-06T07:29:59.210Z,2.30
2019-01-06T07:32:29.273Z,2.40
2019-01-06T07:37:36.254Z,2.40
2019-01-06T07:42:58.276Z,2.40
2019-01-06T07:45:31.414Z,2.40
2019-01-06T07:53:12.053Z,2.50
2019-01-06T08:03:30.283Z,2.50
2019-01-06T08:06:16.698Z,2.50
2019-01-06T08:08:58.546Z,2.50
2019-01-06T08:11:31.116Z,2.50
2019-01-06T08:14:13.295Z,2.60
2019-01-06T08:22:06.699Z,2.60
2019-01-06T08:24:42.283Z,2.70
2019-01-06T08:27:15.365Z,2.70
2019-01-06T08:32:15.187Z,2.70
2019-01-06T08:37:43.153Z,2.70
2019-01-06T08:40:18.873Z,2.70
2019-01-06T08:42:48.944Z,2.70
2019-01-06T08:47:57.202Z,2.80
2019-01-06T08:53:22.391Z,2.80
2019-01-06T08:55:52.453Z,2.80
2019-01-06T08:58:31.482Z,2.80
2019-01-06T09:03:53.287Z,2.90
2019-01-06T09:06:35.350Z,2.90
2019-01-06T09:09:25.010Z,2.90
2019-01-06T09:12:11.391Z,2.90
2019-01-06T09:17:20.270Z,3.10
2019-01-06T09:19:50.733Z,3.10
2019-01-06T09:25:23.671Z,3.10
2019-01-06T09:30:48.222Z,3.10
2019-01-06T09:33:18.287Z,3.10
2019-01-06T09:36:04.530Z,3.20
2019-01-06T09:41:10.263Z,3.20
2019-01-06T09:43:55.141Z,3.20
2019-01-06T09:46:36.875Z,3.20
2019-01-06T09:51:54.698Z,3.30
2019-01-06T09:54:36.527Z,3.30
2019-01-06T09:57:22.898Z,3.30
2019-01-06T10:00:11.114Z,3.30
2019-01-06T10:05:27.373Z,3.30
2019-01-06T10:10:53.390Z,3.30
2019-01-06T10:13:26.119Z,3.40
2019-01-06T10:16:20.276Z,3.40
2019-01-06T10:19:09.401Z,3.40
2019-01-06T10:21:55.617Z,3.40
2019-01-06T10:27:19.865Z,3.40
2019-01-06T10:30:04.966Z,3.40
2019-01-06T10:32:35.038Z,3.50
2019-01-06T10:38:07.850Z,3.50
2019-01-06T10:40:41.087Z,3.50
2019-01-06T10:43:27.372Z,3.40
2019-01-06T10:45:57.421Z,3.40
2019-01-06T10:48:43.637Z,3.40
2019-01-06T10:51:16.197Z,3.40
2019-01-06T10:54:02.252Z,3.40
2019-01-06T10:56:50.297Z,3.40
2019-01-06T10:59:20.612Z,3.40
2019-01-06T11:01:50.694Z,3.30
2019-01-06T11:07:11.573Z,3.40
2019-01-06T11:09:57.569Z,3.30
2019-01-06T11:12:43.716Z,3.40
2019-01-06T11:15:25.641Z,3.40
2019-01-06T11:17:58.601Z,3.40
2019-01-06T11:23:03.664Z,3.40
2019-01-06T11:25:33.784Z,3.40
2019-01-06T11:28:12.884Z,3.40
2019-01-06T11:33:45.446Z,3.40
2019-01-06T11:36:18.761Z,3.40
2019-01-06T11:41:43.221Z,3.50
2019-01-06T11:44:19.118Z,3.50
2019-01-06T11:46:49.344Z,3.50
2019-01-06T11:49:19.410Z,3.50
2019-01-06T12:02:39.276Z,3.60
2019-01-06T12:05:25.585Z,3.60
2019-01-06T12:08:08.066Z,3.60
2019-01-06T12:23:29.001Z,3.70
2019-01-06T12:26:01.769Z,3.70
2019-01-06T12:31:18.144Z,3.80
2019-01-06T12:36:21.060Z,3.80
2019-01-06T12:41:50.193Z,3.80
2019-01-06T12:44:44.476Z,3.80
2019-01-06T12:47:24.763Z,3.90
2019-01-06T12:50:01.129Z,3.90
2019-01-06T12:52:46.088Z,3.90
2019-01-06T12:55:16.354Z,4.00
2019-01-06T12:57:46.901Z,4.10
2019-01-06T13:00:23.014Z,4.00
2019-01-06T13:05:31.270Z,4.00
2019-01-06T13:10:56.574Z,4.00
2019-01-06T13:13:42.993Z,4.00
2019-01-06T13:32:47.997Z,4.20
2019-01-06T13:37:54.198Z,4.20
2019-01-06T13:40:26.752Z,4.10
2019-01-06T13:42:57.146Z,4.20
2019-01-06T13:45:36.023Z,4.10
2019-01-06T13:48:18.273Z,4.10
2019-01-06T13:51:05.078Z,4.10
2019-01-06T13:58:52.940Z,4.10
2019-01-06T14:01:39.775Z,4.10
2019-01-06T14:04:25.006Z,4.10
2019-01-06T14:07:00.749Z,4.00
2019-01-06T14:12:21.565Z,4.00
2019-01-06T14:15:07.833Z,3.90
2019-01-06T14:17:54.409Z,3.90
2019-01-06T14:20:40.621Z,3.90
2019-01-06T14:23:26.472Z,3.80
2019-01-06T14:26:11.343Z,3.70
2019-01-06T14:31:44.914Z,3.70
2019-01-06T14:34:14.981Z,3.60
2019-01-06T14:37:03.100Z,3.60
2019-01-06T14:39:45.257Z,3.60
2019-01-06T14:42:15.375Z,3.60
2019-01-06T14:50:09.684Z,3.50
2019-01-06T14:52:48.826Z,3.60
2019-01-06T14:55:19.053Z,3.50
2019-01-06T15:00:35.376Z,3.50
2019-01-06T15:03:14.137Z,3.50
2019-01-06T15:06:00.230Z,3.50
2019-01-06T15:08:30.330Z,3.30
2019-01-06T15:11:09.131Z,3.30
2019-01-06T15:13:45.839Z,3.30
2019-01-06T15:16:33.819Z,3.30
2019-01-06T15:19:19.909Z,3.30
2019-01-06T15:22:02.194Z,3.20
2019-01-06T15:24:34.919Z,3.20
2019-01-06T15:29:43.574Z,3.10
2019-01-06T15:34:49.544Z,3.10
2019-01-06T15:37:28.184Z,3.10
2019-01-06T15:40:07.145Z,3.10
2019-01-06T15:42:53.016Z,3.10
2019-01-06T15:45:25.869Z,3.10
2019-01-06T15:48:01.673Z,3.00
2019-01-06T15:53:23.106Z,3.00
2019-01-06T15:56:04.689Z,3.00
2019-01-06T16:01:18.706Z,3.00
2019-01-06T16:03:48.754Z,3.00
2019-01-06T16:06:34.548Z,3.00
2019-01-06T16:09:20.592Z,2.90
2019-01-06T16:12:06.774Z,2.90
2019-01-06T16:17:15.412Z,2.90
2019-01-06T16:25:09.057Z,2.90
2019-01-06T16:27:45.059Z,2.90
2019-01-06T16:30:20.525Z,2.90
2019-01-06T16:38:20.058Z,2.90
2019-01-06T16:40:52.920Z,2.80
2019-01-06T16:43:22.974Z,2.90
2019-01-06T16:53:53.358Z,2.90
2019-01-06T16:59:09.205Z,2.90
2019-01-06T17:01:47.691Z,2.90
2019-01-06T17:04:33.898Z,2.80
2019-01-06T17:07:03.984Z,2.90
2019-01-06T17:09:34.020Z,2.90
2019-01-06T17:12:20.379Z,2.90
2019-01-06T17:17:40.748Z,2.90
2019-01-06T17:22:46.369Z,2.90
2019-01-06T17:25:22.013Z,2.90
2019-01-06T17:28:08.076Z,2.90
2019-01-06T17:30:54.089Z,2.90
2019-01-06T17:33:35.952Z,2.90
2019-01-06T17:36:08.963Z,2.80
2019-01-06T17:38:55.055Z,2.80
2019-01-06T17:44:04.172Z,2.80
2019-01-06T17:46:37.205Z,2.70
2019-01-06T17:49:19.487Z,2.80
2019-01-06T17:52:05.569Z,2.80
2019-01-06T17:54:53.537Z,2.80
2019-01-06T17:59:53.386Z,2.80
2019-01-06T18:02:35.490Z,2.70
2019-01-06T18:05:12.318Z,2.70
2019-01-06T18:07:51.188Z,2.70
2019-01-06T18:10:24.454Z,2.70
2019-01-06T18:15:43.205Z,2.70
2019-01-06T18:18:28.025Z,2.70
2019-01-06T18:21:13.886Z,2.70
2019-01-06T18:23:59.998Z,2.70
2019-01-06T18:26:32.972Z,2.70
2019-01-06T18:29:18.201Z,2.70
2019-01-06T18:34:20.417Z,2.70
2019-01-06T18:36:50.465Z,2.70
2019-01-06T18:39:23.249Z,2.70
2019-01-06T18:42:08.165Z,2.60
2019-01-06T18:44:54.096Z,2.60
2019-01-06T18:47:24.144Z,2.60
2019-01-06T18:49:57.201Z,2.60
2019-01-06T18:52:30.276Z,2.60
2019-01-06T18:55:16.274Z,2.60
2019-01-06T18:58:02.674Z,2.60
2019-01-06T19:00:35.680Z,2.60
2019-01-06T19:03:14.542Z,2.60
2019-01-06T19:05:44.628Z,2.60
2019-01-06T19:08:32.556Z,2.60
2019-01-06T19:11:17.630Z,2.60
2019-01-06T19:16:26.158Z,2.60
2019-01-06T19:19:12.697Z,2.60
2019-01-06T19:24:27.308Z,2.60
2019-01-06T19:29:33.150Z,2.60
2019-01-06T19:32:14.797Z,2.60
2019-01-06T19:34:53.079Z,2.50
2019-01-06T19:37:38.656Z,2.50
2019-01-06T19:40:25.089Z,2.50
2019-01-06T19:43:12.657Z,2.50
2019-01-06T19:51:14.728Z,2.50
2019-01-06T19:56:45.873Z,2.60
2019-01-06T19:59:27.581Z,2.50
2019-01-06T20:04:35.556Z,2.60
2019-01-06T20:07:05.613Z,2.60
2019-01-06T20:09:51.769Z,2.60
2019-01-06T20:12:30.323Z,2.60
2019-01-06T20:15:09.406Z,2.60
2019-01-06T20:17:42.513Z,2.60
2019-01-06T20:25:34.655Z,2.60
2019-01-06T20:28:10.488Z,2.60
2019-01-06T20:30:43.212Z,2.60
2019-01-06T20:33:16.224Z,2.60
2019-01-06T20:36:02.529Z,2.60
2019-01-06T20:38:35.364Z,2.60
2019-01-06T20:41:08.491Z,2.60
2019-01-06T20:43:38.539Z,2.60
2019-01-06T20:48:53.188Z,2.60
2019-01-06T20:54:08.873Z,2.60
2019-01-06T20:56:41.365Z,2.60
2019-01-06T21:01:54.550Z,2.60
2019-01-06T21:04:27.253Z,2.60
2019-01-06T21:09:29.706Z,2.60
2019-01-06T21:12:11.545Z,2.60
2019-01-06T21:14:47.414Z,2.60
2019-01-06T21:17:17.480Z,2.60
2019-01-06T21:20:05.358Z,2.50
2019-01-06T21:25:24.008Z,2.50
2019-01-06T21:28:10.584Z,2.50
2019-01-06T21:30:56.915Z,2.50
2019-01-06T21:33:43.198Z,2.50
2019-01-06T21:36:22.269Z,2.40
2019-01-06T21:39:08.544Z,2.40
2019-01-06T21:41:43.145Z,2.40
2019-01-06T21:44:28.764Z,2.40
2019-01-06T21:52:43.088Z,2.40
2019-01-06T21:55:29.032Z,2.40
2019-01-06T21:57:59.161Z,2.40
2019-01-06T22:00:31.852Z,2.40
2019-01-06T22:05:40.313Z,2.40
2019-01-06T22:08:25.499Z,2.40
2019-01-06T22:10:58.544Z,2.40
2019-01-06T22:13:34.664Z,2.40
2019-01-06T22:19:02.458Z,2.50
2019-01-06T22:24:20.435Z,2.50
2019-01-06T22:27:05.340Z,2.50
2019-01-06T22:29:35.405Z,2.50
2019-01-06T22:32:21.448Z,2.40
2019-01-06T22:35:00.283Z,2.50
2019-01-06T22:37:46.709Z,2.40
2019-01-06T22:40:16.787Z,2.40
2019-01-06T22:45:28.407Z,2.40
2019-01-06T22:48:04.417Z,2.40
2019-01-06T22:50:37.185Z,2.40
2019-01-06T22:58:39.508Z,2.40
2019-01-06T23:01:15.442Z,2.40
2019-01-06T23:03:48.421Z,2.40
2019-01-06T23:06:24.414Z,2.40
2019-01-06T23:09:03.335Z,2.40
2019-01-06T23:11:39.847Z,2.40
2019-01-06T23:14:21.753Z,2.40
2019-01-06T23:16:54.761Z,2.40
2019-01-06T23:24:39.693Z,2.40
2019-01-06T23:29:51.997Z,2.40
2019-01-06T23:32:34.185Z,2.40
2019-01-06T23:35:07.005Z,2.40
2019-01-06T23:37:45.930Z,2.40
2019-01-06T23:40:32.341Z,2.40
2019-01-06T23:43:02.399Z,2.40
2019-01-06T23:45:44.405Z,2.40
2019-01-06T23:48:30.594Z,2.40
2019-01-06T23:51:17.015Z,2.40
2019-01-06T23:53:56.332Z,2.40
2019-01-06T23:56:42.524Z,2.40
2019-01-06T23:59:28.842Z,2.40
